sensor_id;sensor_type;location;lat;lon;timestamp;temperature;humidity
9497;DHT22;4786;51.270;4.456;2023-07-20T00:01:25;18.70;99.90
9497;DHT22;4786;51.270;4.456;2023-07-20T00:03:51;18.60;99.90
9497;DHT22;4786;51.270;4.456;2023-07-20T00:06:29;18.70;99.90
9497;DHT22;4786;51.270;4.456;2023-07-20T00:08:55;18.60;99.90
9497;DHT22;4786;51.270;4.456;2023-07-20T00:11:27;18.60;99.90
9497;DHT22;4786;51.270;4.456;2023-07-20T00:13:53;18.50;99.90
9497;DHT22;4786;51.270;4.456;2023-07-20T00:16:19;18.50;99.90
9497;DHT22;4786;51.270;4.456;2023-07-20T00:18:45;18.50;99.90
9497;DHT22;4786;51.270;4.456;2023-07-20T00:21:12;18.50;99.90
9497;DHT22;4786;51.270;4.456;2023-07-20T00:23:38;18.50;99.90
9497;DHT22;4786;51.270;4.456;2023-07-20T00:26:04;18.50;99.90
9497;DHT22;4786;51.270;4.456;2023-07-20T00:28:30;18.50;99.90
9497;DHT22;4786;51.270;4.456;2023-07-20T00:30:56;18.50;99.90
9497;DHT22;4786;51.270;4.456;2023-07-20T00:33:21;18.40;99.90
9497;DHT22;4786;51.270;4.456;2023-07-20T00:35:47;18.40;99.90
9497;DHT22;4786;51.270;4.456;2023-07-20T00:38:13;18.30;99.90
9497;DHT22;4786;51.270;4.456;2023-07-20T00:40:40;18.30;99.90
9497;DHT22;4786;51.270;4.456;2023-07-20T00:43:07;18.30;99.90
9497;DHT22;4786;51.270;4.456;2023-07-20T00:45:34;18.30;99.90
9497;DHT22;4786;51.270;4.456;2023-07-20T00:48:01;18.30;99.90
9497;DHT22;4786;51.270;4.456;2023-07-20T00:50:28;18.20;99.90
9497;DHT22;4786;51.270;4.456;2023-07-20T00:52:55;18.20;99.90
9497;DHT22;4786;51.270;4.456;2023-07-20T00:55:23;18.20;99.90
9497;DHT22;4786;51.270;4.456;2023-07-20T00:57:51;18.30;99.90
9497;DHT22;4786;51.270;4.456;2023-07-20T01:00:17;18.20;99.90
9497;DHT22;4786;51.270;4.456;2023-07-20T01:02:43;18.20;99.90
9497;DHT22;4786;51.270;4.456;2023-07-20T01:05:09;18.20;99.90
9497;DHT22;4786;51.270;4.456;2023-07-20T01:08:05;18.20;99.90
9497;DHT22;4786;51.270;4.456;2023-07-20T01:10:46;18.20;99.90
9497;DHT22;4786;51.270;4.456;2023-07-20T01:13:18;18.10;99.90
9497;DHT22;4786;51.270;4.456;2023-07-20T01:15:49;18.10;99.90
9497;DHT22;4786;51.270;4.456;2023-07-20T01:18:16;18.10;99.90
9497;DHT22;4786;51.270;4.456;2023-07-20T01:20:43;18.00;99.90
9497;DHT22;4786;51.270;4.456;2023-07-20T01:33:42;17.80;99.90
9497;DHT22;4786;51.270;4.456;2023-07-20T01:36:10;17.80;99.90
9497;DHT22;4786;51.270;4.456;2023-07-20T01:38:37;17.80;99.90
9497;DHT22;4786;51.270;4.456;2023-07-20T01:41:03;17.80;99.90
9497;DHT22;4786;51.270;4.456;2023-07-20T01:43:30;17.80;99.90
9497;DHT22;4786;51.270;4.456;2023-07-20T01:45:56;17.80;99.90
9497;DHT22;4786;51.270;4.456;2023-07-20T01:48:22;17.70;99.90
9497;DHT22;4786;51.270;4.456;2023-07-20T01:50:48;17.80;99.90
9497;DHT22;4786;51.270;4.456;2023-07-20T01:53:14;17.70;99.90
9497;DHT22;4786;51.270;4.456;2023-07-20T01:55:40;17.70;99.90
9497;DHT22;4786;51.270;4.456;2023-07-20T01:58:06;17.70;99.90
9497;DHT22;4786;51.270;4.456;2023-07-20T02:00:33;17.70;99.90
9497;DHT22;4786;51.270;4.456;2023-07-20T02:02:58;17.70;99.90
9497;DHT22;4786;51.270;4.456;2023-07-20T02:05:24;17.70;99.90
9497;DHT22;4786;51.270;4.456;2023-07-20T02:07:51;17.80;99.90
9497;DHT22;4786;51.270;4.456;2023-07-20T02:10:17;17.80;99.90
9497;DHT22;4786;51.270;4.456;2023-07-20T02:12:42;17.80;99.90
9497;DHT22;4786;51.270;4.456;2023-07-20T02:15:09;17.80;99.90
9497;DHT22;4786;51.270;4.456;2023-07-20T02:17:36;17.80;99.90
9497;DHT22;4786;51.270;4.456;2023-07-20T02:20:02;17.70;99.90
9497;DHT22;4786;51.270;4.456;2023-07-20T02:22:28;17.70;99.90
9497;DHT22;4786;51.270;4.456;2023-07-20T02:24:54;17.70;99.90
9497;DHT22;4786;51.270;4.456;2023-07-20T02:27:21;17.70;99.90
9497;DHT22;4786;51.270;4.456;2023-07-20T02:29:46;17.60;99.90
9497;DHT22;4786;51.270;4.456;2023-07-20T02:32:12;17.50;99.90
9497;DHT22;4786;51.270;4.456;2023-07-20T02:34:38;17.50;99.90
9497;DHT22;4786;51.270;4.456;2023-07-20T02:37:04;17.50;99.90
9497;DHT22;4786;51.270;4.456;2023-07-20T02:39:30;17.50;99.90
9497;DHT22;4786;51.270;4.456;2023-07-20T02:41:56;17.40;99.90
9497;DHT22;4786;51.270;4.456;2023-07-20T02:44:22;17.30;99.90
9497;DHT22;4786;51.270;4.456;2023-07-20T02:46:48;17.30;99.90
9497;DHT22;4786;51.270;4.456;2023-07-20T02:49:15;17.20;99.90
9497;DHT22;4786;51.270;4.456;2023-07-20T02:51:41;17.20;99.90
9497;DHT22;4786;51.270;4.456;2023-07-20T02:54:07;17.30;99.90
9497;DHT22;4786;51.270;4.456;2023-07-20T02:56:34;17.30;99.90
9497;DHT22;4786;51.270;4.456;2023-07-20T02:59:01;17.40;99.90
9497;DHT22;4786;51.270;4.456;2023-07-20T03:01:27;17.40;99.90
9497;DHT22;4786;51.270;4.456;2023-07-20T03:03:55;17.30;99.90
9497;DHT22;4786;51.270;4.456;2023-07-20T03:06:21;17.20;99.90
9497;DHT22;4786;51.270;4.456;2023-07-20T03:08:47;17.20;99.90
9497;DHT22;4786;51.270;4.456;2023-07-20T03:11:17;17.20;99.90
9497;DHT22;4786;51.270;4.456;2023-07-20T03:13:44;17.20;99.90
9497;DHT22;4786;51.270;4.456;2023-07-20T03:16:11;17.10;99.90
9497;DHT22;4786;51.270;4.456;2023-07-20T03:18:39;17.10;99.90
9497;DHT22;4786;51.270;4.456;2023-07-20T03:21:09;17.00;99.90
9497;DHT22;4786;51.270;4.456;2023-07-20T03:23:42;17.00;99.90
9497;DHT22;4786;51.270;4.456;2023-07-20T03:26:08;17.00;99.90
9497;DHT22;4786;51.270;4.456;2023-07-20T03:28:35;16.90;99.90
9497;DHT22;4786;51.270;4.456;2023-07-20T03:31:01;17.00;99.90
9497;DHT22;4786;51.270;4.456;2023-07-20T03:33:28;16.90;99.90
9497;DHT22;4786;51.270;4.456;2023-07-20T03:35:55;16.90;99.90
9497;DHT22;4786;51.270;4.456;2023-07-20T03:38:22;16.90;99.90
9497;DHT22;4786;51.270;4.456;2023-07-20T03:40:50;16.90;99.90
9497;DHT22;4786;51.270;4.456;2023-07-20T03:43:16;16.90;99.90
9497;DHT22;4786;51.270;4.456;2023-07-20T03:45:42;16.90;99.90
9497;DHT22;4786;51.270;4.456;2023-07-20T03:48:08;16.90;99.90
9497;DHT22;4786;51.270;4.456;2023-07-20T03:50:34;16.90;99.90
9497;DHT22;4786;51.270;4.456;2023-07-20T03:53:00;16.90;99.90
9497;DHT22;4786;51.270;4.456;2023-07-20T03:55:26;16.90;99.90
9497;DHT22;4786;51.270;4.456;2023-07-20T03:57:52;16.80;99.90
9497;DHT22;4786;51.270;4.456;2023-07-20T04:00:18;16.90;99.90
9497;DHT22;4786;51.270;4.456;2023-07-20T04:02:44;16.90;99.90
9497;DHT22;4786;51.270;4.456;2023-07-20T04:05:10;16.90;99.90
9497;DHT22;4786;51.270;4.456;2023-07-20T04:07:35;16.90;99.90
9497;DHT22;4786;51.270;4.456;2023-07-20T04:10:02;16.90;99.90
9497;DHT22;4786;51.270;4.456;2023-07-20T04:12:27;16.90;99.90
9497;DHT22;4786;51.270;4.456;2023-07-20T04:14:54;16.90;99.90
9497;DHT22;4786;51.270;4.456;2023-07-20T04:17:20;16.90;99.90
9497;DHT22;4786;51.270;4.456;2023-07-20T04:19:46;17.00;99.90
9497;DHT22;4786;51.270;4.456;2023-07-20T04:22:12;17.00;99.90
9497;DHT22;4786;51.270;4.456;2023-07-20T04:24:41;17.00;99.90
9497;DHT22;4786;51.270;4.456;2023-07-20T04:27:08;17.00;99.90
9497;DHT22;4786;51.270;4.456;2023-07-20T04:29:33;17.00;99.90
9497;DHT22;4786;51.270;4.456;2023-07-20T04:31:59;17.10;99.90
9497;DHT22;4786;51.270;4.456;2023-07-20T04:34:26;17.10;99.90
9497;DHT22;4786;51.270;4.456;2023-07-20T04:36:52;17.10;99.90
9497;DHT22;4786;51.270;4.456;2023-07-20T04:39:18;17.10;99.90
9497;DHT22;4786;51.270;4.456;2023-07-20T04:41:45;17.30;99.90
9497;DHT22;4786;51.270;4.456;2023-07-20T04:44:10;17.30;99.90
9497;DHT22;4786;51.270;4.456;2023-07-20T04:46:36;17.30;99.90
9497;DHT22;4786;51.270;4.456;2023-07-20T04:49:02;17.30;99.90
9497;DHT22;4786;51.270;4.456;2023-07-20T04:51:28;17.50;99.90
9497;DHT22;4786;51.270;4.456;2023-07-20T04:53:55;17.50;99.90
9497;DHT22;4786;51.270;4.456;2023-07-20T04:56:21;17.60;99.90
9497;DHT22;4786;51.270;4.456;2023-07-20T04:58:48;17.60;99.90
9497;DHT22;4786;51.270;4.456;2023-07-20T05:01:15;17.70;99.90
9497;DHT22;4786;51.270;4.456;2023-07-20T05:03:40;17.70;99.90
9497;DHT22;4786;51.270;4.456;2023-07-20T05:06:07;17.70;99.90
9497;DHT22;4786;51.270;4.456;2023-07-20T05:08:33;17.80;99.90
9497;DHT22;4786;51.270;4.456;2023-07-20T05:10:59;17.80;99.90
9497;DHT22;4786;51.270;4.456;2023-07-20T05:13:26;17.80;99.90
9497;DHT22;4786;51.270;4.456;2023-07-20T05:15:52;17.90;99.90
9497;DHT22;4786;51.270;4.456;2023-07-20T05:18:19;17.90;99.90
9497;DHT22;4786;51.270;4.456;2023-07-20T05:20:47;17.90;99.90
9497;DHT22;4786;51.270;4.456;2023-07-20T05:23:13;18.00;99.90
9497;DHT22;4786;51.270;4.456;2023-07-20T05:25:40;18.30;99.90
9497;DHT22;4786;51.270;4.456;2023-07-20T05:28:05;18.50;99.90
9497;DHT22;4786;51.270;4.456;2023-07-20T05:30:31;19.00;99.90
9497;DHT22;4786;51.270;4.456;2023-07-20T05:32:57;19.70;99.90
9497;DHT22;4786;51.270;4.456;2023-07-20T05:35:25;20.90;99.90
9497;DHT22;4786;51.270;4.456;2023-07-20T05:37:51;21.80;99.90
9497;DHT22;4786;51.270;4.456;2023-07-20T05:40:18;22.40;99.90
9497;DHT22;4786;51.270;4.456;2023-07-20T05:42:45;23.10;99.90
9497;DHT22;4786;51.270;4.456;2023-07-20T05:45:17;23.70;99.90
9497;DHT22;4786;51.270;4.456;2023-07-20T05:47:43;24.20;99.90
9497;DHT22;4786;51.270;4.456;2023-07-20T05:50:10;25.10;99.90
9497;DHT22;4786;51.270;4.456;2023-07-20T05:52:36;26.00;99.90
9497;DHT22;4786;51.270;4.456;2023-07-20T05:55:04;26.60;99.90
9497;DHT22;4786;51.270;4.456;2023-07-20T05:57:31;27.30;99.90
9497;DHT22;4786;51.270;4.456;2023-07-20T05:59:56;27.60;99.90
9497;DHT22;4786;51.270;4.456;2023-07-20T06:02:22;27.90;99.90
9497;DHT22;4786;51.270;4.456;2023-07-20T06:04:48;28.50;99.90
9497;DHT22;4786;51.270;4.456;2023-07-20T06:07:15;28.60;99.90
9497;DHT22;4786;51.270;4.456;2023-07-20T06:09:41;28.50;99.90
9497;DHT22;4786;51.270;4.456;2023-07-20T06:12:07;27.90;99.90
9497;DHT22;4786;51.270;4.456;2023-07-20T06:14:33;27.10;99.90
9497;DHT22;4786;51.270;4.456;2023-07-20T06:16:58;26.20;99.90
9497;DHT22;4786;51.270;4.456;2023-07-20T06:19:24;25.70;99.90
9497;DHT22;4786;51.270;4.456;2023-07-20T06:21:50;25.50;99.90
9497;DHT22;4786;51.270;4.456;2023-07-20T06:24:17;25.40;99.90
9497;DHT22;4786;51.270;4.456;2023-07-20T06:26:43;25.00;99.90
9497;DHT22;4786;51.270;4.456;2023-07-20T06:29:09;25.00;99.90
9497;DHT22;4786;51.270;4.456;2023-07-20T06:31:36;25.30;99.90
9497;DHT22;4786;51.270;4.456;2023-07-20T06:34:03;25.80;99.90
9497;DHT22;4786;51.270;4.456;2023-07-20T06:36:29;25.40;99.90
9497;DHT22;4786;51.270;4.456;2023-07-20T06:38:55;25.20;99.90
9497;DHT22;4786;51.270;4.456;2023-07-20T06:41:22;25.20;99.90
9497;DHT22;4786;51.270;4.456;2023-07-20T06:43:48;25.30;99.90
9497;DHT22;4786;51.270;4.456;2023-07-20T06:46:14;25.00;99.90
9497;DHT22;4786;51.270;4.456;2023-07-20T06:48:40;24.40;99.90
9497;DHT22;4786;51.270;4.456;2023-07-20T06:51:05;24.20;99.90
9497;DHT22;4786;51.270;4.456;2023-07-20T06:53:32;24.00;99.90
9497;DHT22;4786;51.270;4.456;2023-07-20T06:55:58;23.60;99.90
9497;DHT22;4786;51.270;4.456;2023-07-20T06:58:24;23.60;99.90
9497;DHT22;4786;51.270;4.456;2023-07-20T07:00:51;23.40;99.90
9497;DHT22;4786;51.270;4.456;2023-07-20T07:03:17;23.20;99.90
9497;DHT22;4786;51.270;4.456;2023-07-20T07:05:44;23.00;99.90
9497;DHT22;4786;51.270;4.456;2023-07-20T07:08:29;22.90;99.90
9497;DHT22;4786;51.270;4.456;2023-07-20T07:10:55;22.60;99.90
9497;DHT22;4786;51.270;4.456;2023-07-20T07:13:21;22.40;99.90
9497;DHT22;4786;51.270;4.456;2023-07-20T07:15:47;22.50;99.90
9497;DHT22;4786;51.270;4.456;2023-07-20T07:18:13;22.60;99.90
9497;DHT22;4786;51.270;4.456;2023-07-20T07:20:39;22.60;99.90
9497;DHT22;4786;51.270;4.456;2023-07-20T07:23:05;22.20;99.90
9497;DHT22;4786;51.270;4.456;2023-07-20T07:25:31;22.10;99.90
9497;DHT22;4786;51.270;4.456;2023-07-20T07:27:57;21.90;99.90
9497;DHT22;4786;51.270;4.456;2023-07-20T07:30:23;21.90;99.90
9497;DHT22;4786;51.270;4.456;2023-07-20T07:32:49;22.20;99.90
9497;DHT22;4786;51.270;4.456;2023-07-20T07:35:15;22.70;99.90
9497;DHT22;4786;51.270;4.456;2023-07-20T07:37:41;22.80;99.90
9497;DHT22;4786;51.270;4.456;2023-07-20T07:40:07;22.60;99.90
9497;DHT22;4786;51.270;4.456;2023-07-20T07:42:34;22.70;99.90
9497;DHT22;4786;51.270;4.456;2023-07-20T07:44:59;22.70;99.90
9497;DHT22;4786;51.270;4.456;2023-07-20T07:47:26;22.50;99.90
9497;DHT22;4786;51.270;4.456;2023-07-20T07:49:52;22.20;99.90
9497;DHT22;4786;51.270;4.456;2023-07-20T07:52:17;22.30;99.90
9497;DHT22;4786;51.270;4.456;2023-07-20T07:54:43;22.40;99.90
9497;DHT22;4786;51.270;4.456;2023-07-20T07:57:09;22.40;99.90
9497;DHT22;4786;51.270;4.456;2023-07-20T07:59:35;22.60;99.90
9497;DHT22;4786;51.270;4.456;2023-07-20T08:02:04;22.50;99.90
9497;DHT22;4786;51.270;4.456;2023-07-20T08:04:31;22.40;99.90
9497;DHT22;4786;51.270;4.456;2023-07-20T08:06:59;22.10;99.90
9497;DHT22;4786;51.270;4.456;2023-07-20T08:09:25;22.10;99.90
9497;DHT22;4786;51.270;4.456;2023-07-20T08:11:50;21.90;99.90
9497;DHT22;4786;51.270;4.456;2023-07-20T08:14:16;21.90;99.90
9497;DHT22;4786;51.270;4.456;2023-07-20T08:16:42;21.90;99.90
9497;DHT22;4786;51.270;4.456;2023-07-20T08:19:08;22.10;99.90
9497;DHT22;4786;51.270;4.456;2023-07-20T08:21:34;22.30;99.90
9497;DHT22;4786;51.270;4.456;2023-07-20T08:24:00;22.20;99.90
9497;DHT22;4786;51.270;4.456;2023-07-20T08:26:26;22.20;99.90
9497;DHT22;4786;51.270;4.456;2023-07-20T08:28:52;22.20;99.90
9497;DHT22;4786;51.270;4.456;2023-07-20T08:31:18;22.30;99.90
9497;DHT22;4786;51.270;4.456;2023-07-20T08:33:44;22.50;99.90
9497;DHT22;4786;51.270;4.456;2023-07-20T08:36:11;22.70;99.90
9497;DHT22;4786;51.270;4.456;2023-07-20T08:38:37;22.90;99.90
9497;DHT22;4786;51.270;4.456;2023-07-20T08:41:03;23.20;99.90
9497;DHT22;4786;51.270;4.456;2023-07-20T08:43:30;23.30;99.90
9497;DHT22;4786;51.270;4.456;2023-07-20T08:45:57;23.20;99.90
9497;DHT22;4786;51.270;4.456;2023-07-20T08:48:27;23.10;99.90
9497;DHT22;4786;51.270;4.456;2023-07-20T08:50:53;23.20;99.90
9497;DHT22;4786;51.270;4.456;2023-07-20T08:53:20;23.00;99.90
9497;DHT22;4786;51.270;4.456;2023-07-20T08:55:50;23.10;99.90
9497;DHT22;4786;51.270;4.456;2023-07-20T08:58:17;23.30;99.90
9497;DHT22;4786;51.270;4.456;2023-07-20T09:00:43;23.50;99.90
9497;DHT22;4786;51.270;4.456;2023-07-20T09:03:11;23.80;99.90
9497;DHT22;4786;51.270;4.456;2023-07-20T09:05:37;24.00;99.90
9497;DHT22;4786;51.270;4.456;2023-07-20T09:08:05;24.20;99.90
9497;DHT22;4786;51.270;4.456;2023-07-20T09:10:31;24.40;99.90
9497;DHT22;4786;51.270;4.456;2023-07-20T09:12:57;24.40;99.90
9497;DHT22;4786;51.270;4.456;2023-07-20T09:15:23;24.40;99.90
9497;DHT22;4786;51.270;4.456;2023-07-20T09:17:50;24.30;99.90
9497;DHT22;4786;51.270;4.456;2023-07-20T09:20:17;24.00;99.90
9497;DHT22;4786;51.270;4.456;2023-07-20T09:22:44;24.00;99.90
9497;DHT22;4786;51.270;4.456;2023-07-20T09:25:18;23.90;99.90
9497;DHT22;4786;51.270;4.456;2023-07-20T09:27:48;24.00;99.90
9497;DHT22;4786;51.270;4.456;2023-07-20T09:30:15;24.10;99.90
9497;DHT22;4786;51.270;4.456;2023-07-20T09:32:46;24.20;99.90
9497;DHT22;4786;51.270;4.456;2023-07-20T09:35:16;24.20;99.90
9497;DHT22;4786;51.270;4.456;2023-07-20T09:37:54;24.20;99.90
9497;DHT22;4786;51.270;4.456;2023-07-20T09:40:21;24.10;99.90
9497;DHT22;4786;51.270;4.456;2023-07-20T09:42:47;23.90;99.90
9497;DHT22;4786;51.270;4.456;2023-07-20T09:45:14;23.70;99.90
9497;DHT22;4786;51.270;4.456;2023-07-20T09:47:40;23.50;99.90
9497;DHT22;4786;51.270;4.456;2023-07-20T09:50:07;23.70;99.90
9497;DHT22;4786;51.270;4.456;2023-07-20T09:52:41;23.90;99.90
9497;DHT22;4786;51.270;4.456;2023-07-20T09:55:08;23.90;99.90
9497;DHT22;4786;51.270;4.456;2023-07-20T09:57:35;24.10;99.90
9497;DHT22;4786;51.270;4.456;2023-07-20T10:00:03;24.40;99.90
9497;DHT22;4786;51.270;4.456;2023-07-20T10:02:33;24.40;99.90
9497;DHT22;4786;51.270;4.456;2023-07-20T10:05:03;24.40;99.90
9497;DHT22;4786;51.270;4.456;2023-07-20T10:07:36;24.40;99.90
9497;DHT22;4786;51.270;4.456;2023-07-20T10:10:06;24.40;99.90
9497;DHT22;4786;51.270;4.456;2023-07-20T10:12:33;24.60;99.90
9497;DHT22;4786;51.270;4.456;2023-07-20T10:17:59;25.00;99.90
9497;DHT22;4786;51.270;4.456;2023-07-20T10:20:28;25.20;99.90
9497;DHT22;4786;51.270;4.456;2023-07-20T10:22:56;25.30;99.90
9497;DHT22;4786;51.270;4.456;2023-07-20T10:25:23;25.10;99.90
9497;DHT22;4786;51.270;4.456;2023-07-20T10:27:50;24.80;99.90
9497;DHT22;4786;51.270;4.456;2023-07-20T10:30:17;25.00;99.90
9497;DHT22;4786;51.270;4.456;2023-07-20T10:32:44;25.00;99.90
9497;DHT22;4786;51.270;4.456;2023-07-20T10:35:17;25.30;99.90
9497;DHT22;4786;51.270;4.456;2023-07-20T10:40:26;25.60;99.90
9497;DHT22;4786;51.270;4.456;2023-07-20T10:43:00;25.70;99.90
9497;DHT22;4786;51.270;4.456;2023-07-20T10:45:42;25.80;99.90
9497;DHT22;4786;51.270;4.456;2023-07-20T10:48:20;25.90;99.90
9497;DHT22;4786;51.270;4.456;2023-07-20T10:51:12;25.90;99.90
9497;DHT22;4786;51.270;4.456;2023-07-20T10:53:40;25.90;99.90
9497;DHT22;4786;51.270;4.456;2023-07-20T10:56:09;25.80;99.90
9497;DHT22;4786;51.270;4.456;2023-07-20T10:58:36;25.60;99.90
9497;DHT22;4786;51.270;4.456;2023-07-20T11:01:11;25.30;99.90
9497;DHT22;4786;51.270;4.456;2023-07-20T11:03:39;25.40;99.90
9497;DHT22;4786;51.270;4.456;2023-07-20T11:09:04;25.20;99.90
9497;DHT22;4786;51.270;4.456;2023-07-20T11:11:32;25.20;99.90
9497;DHT22;4786;51.270;4.456;2023-07-20T11:14:08;25.20;99.90
9497;DHT22;4786;51.270;4.456;2023-07-20T11:16:44;25.00;99.90
9497;DHT22;4786;51.270;4.456;2023-07-20T11:19:25;24.90;99.90
9497;DHT22;4786;51.270;4.456;2023-07-20T11:21:56;25.00;99.90
9497;DHT22;4786;51.270;4.456;2023-07-20T11:24:23;25.10;99.90
9497;DHT22;4786;51.270;4.456;2023-07-20T11:26:51;25.20;99.90
9497;DHT22;4786;51.270;4.456;2023-07-20T11:29:19;25.20;99.90
9497;DHT22;4786;51.270;4.456;2023-07-20T11:31:46;25.20;99.90
9497;DHT22;4786;51.270;4.456;2023-07-20T11:34:18;25.40;99.90
9497;DHT22;4786;51.270;4.456;2023-07-20T11:36:47;25.50;99.90
9497;DHT22;4786;51.270;4.456;2023-07-20T11:39:14;25.50;99.90
9497;DHT22;4786;51.270;4.456;2023-07-20T11:41:48;25.40;99.90
9497;DHT22;4786;51.270;4.456;2023-07-20T11:44:16;25.30;99.90
9497;DHT22;4786;51.270;4.456;2023-07-20T11:46:43;25.50;99.90
9497;DHT22;4786;51.270;4.456;2023-07-20T11:49:12;25.70;99.90
9497;DHT22;4786;51.270;4.456;2023-07-20T11:51:40;25.80;99.90
9497;DHT22;4786;51.270;4.456;2023-07-20T11:54:08;25.60;99.70
9497;DHT22;4786;51.270;4.456;2023-07-20T11:56:34;25.50;99.90
9497;DHT22;4786;51.270;4.456;2023-07-20T11:59:01;25.70;99.90
9497;DHT22;4786;51.270;4.456;2023-07-20T12:01:29;25.80;99.20
9497;DHT22;4786;51.270;4.456;2023-07-20T12:04:00;26.00;99.90
9497;DHT22;4786;51.270;4.456;2023-07-20T12:06:30;26.10;99.20
9497;DHT22;4786;51.270;4.456;2023-07-20T12:08:59;26.30;99.90
9497;DHT22;4786;51.270;4.456;2023-07-20T12:11:38;26.60;98.90
9497;DHT22;4786;51.270;4.456;2023-07-20T12:14:07;26.50;97.70
9497;DHT22;4786;51.270;4.456;2023-07-20T12:16:35;26.50;98.30
9497;DHT22;4786;51.270;4.456;2023-07-20T12:19:12;26.30;99.50
9497;DHT22;4786;51.270;4.456;2023-07-20T12:21:40;26.30;98.70
9497;DHT22;4786;51.270;4.456;2023-07-20T12:24:08;26.20;99.90
9497;DHT22;4786;51.270;4.456;2023-07-20T12:26:38;26.10;99.90
9497;DHT22;4786;51.270;4.456;2023-07-20T12:29:04;26.20;99.90
9497;DHT22;4786;51.270;4.456;2023-07-20T12:31:30;26.30;98.70
9497;DHT22;4786;51.270;4.456;2023-07-20T12:33:57;26.20;97.10
9497;DHT22;4786;51.270;4.456;2023-07-20T12:36:24;26.40;98.10
9497;DHT22;4786;51.270;4.456;2023-07-20T12:38:50;26.50;96.90
9497;DHT22;4786;51.270;4.456;2023-07-20T12:41:16;26.20;96.80
9497;DHT22;4786;51.270;4.456;2023-07-20T12:43:42;26.10;98.10
9497;DHT22;4786;51.270;4.456;2023-07-20T12:46:10;25.90;98.00
9497;DHT22;4786;51.270;4.456;2023-07-20T12:48:37;25.80;99.90
9497;DHT22;4786;51.270;4.456;2023-07-20T12:51:04;25.80;99.90
9497;DHT22;4786;51.270;4.456;2023-07-20T12:53:31;25.80;99.90
9497;DHT22;4786;51.270;4.456;2023-07-20T12:55:58;25.70;99.90
9497;DHT22;4786;51.270;4.456;2023-07-20T12:58:24;25.60;99.00
9497;DHT22;4786;51.270;4.456;2023-07-20T13:00:50;25.50;99.90
9497;DHT22;4786;51.270;4.456;2023-07-20T13:03:15;25.40;99.90
9497;DHT22;4786;51.270;4.456;2023-07-20T13:05:44;25.30;99.90
9497;DHT22;4786;51.270;4.456;2023-07-20T13:08:09;25.10;99.90
9497;DHT22;4786;51.270;4.456;2023-07-20T13:10:36;25.00;99.90
9497;DHT22;4786;51.270;4.456;2023-07-20T13:13:01;24.80;99.90
9497;DHT22;4786;51.270;4.456;2023-07-20T13:15:31;24.50;99.90
9497;DHT22;4786;51.270;4.456;2023-07-20T13:17:58;24.30;99.90
9497;DHT22;4786;51.270;4.456;2023-07-20T13:20:25;24.30;99.90
9497;DHT22;4786;51.270;4.456;2023-07-20T13:22:52;24.20;99.90
9497;DHT22;4786;51.270;4.456;2023-07-20T13:25:18;24.10;99.90
9497;DHT22;4786;51.270;4.456;2023-07-20T13:27:44;24.00;99.90
9497;DHT22;4786;51.270;4.456;2023-07-20T13:30:10;23.90;99.90
9497;DHT22;4786;51.270;4.456;2023-07-20T13:32:42;24.00;99.90
9497;DHT22;4786;51.270;4.456;2023-07-20T13:35:09;23.90;99.90
9497;DHT22;4786;51.270;4.456;2023-07-20T13:37:34;23.90;99.90
9497;DHT22;4786;51.270;4.456;2023-07-20T13:40:01;23.90;99.90
9497;DHT22;4786;51.270;4.456;2023-07-20T13:42:27;24.10;99.90
9497;DHT22;4786;51.270;4.456;2023-07-20T13:44:53;24.10;99.90
9497;DHT22;4786;51.270;4.456;2023-07-20T13:47:19;24.20;99.90
9497;DHT22;4786;51.270;4.456;2023-07-20T13:49:45;24.40;99.90
9497;DHT22;4786;51.270;4.456;2023-07-20T13:52:12;24.40;99.90
9497;DHT22;4786;51.270;4.456;2023-07-20T13:54:37;24.60;99.90
9497;DHT22;4786;51.270;4.456;2023-07-20T13:57:03;24.70;99.90
9497;DHT22;4786;51.270;4.456;2023-07-20T13:59:29;24.80;99.90
9497;DHT22;4786;51.270;4.456;2023-07-20T14:01:55;25.00;99.90
9497;DHT22;4786;51.270;4.456;2023-07-20T14:04:20;25.20;99.90
9497;DHT22;4786;51.270;4.456;2023-07-20T14:06:46;25.30;99.90
9497;DHT22;4786;51.270;4.456;2023-07-20T14:09:12;25.40;99.90
9497;DHT22;4786;51.270;4.456;2023-07-20T14:11:38;25.50;99.90
9497;DHT22;4786;51.270;4.456;2023-07-20T14:14:04;25.50;99.90
9497;DHT22;4786;51.270;4.456;2023-07-20T14:16:31;25.50;99.90
9497;DHT22;4786;51.270;4.456;2023-07-20T14:18:58;25.50;99.90
9497;DHT22;4786;51.270;4.456;2023-07-20T14:21:24;25.50;99.90
9497;DHT22;4786;51.270;4.456;2023-07-20T14:23:51;25.50;99.90
9497;DHT22;4786;51.270;4.456;2023-07-20T14:26:18;25.40;99.90
9497;DHT22;4786;51.270;4.456;2023-07-20T14:28:44;25.40;99.90
9497;DHT22;4786;51.270;4.456;2023-07-20T14:31:10;25.30;99.90
9497;DHT22;4786;51.270;4.456;2023-07-20T14:33:36;25.20;99.90
9497;DHT22;4786;51.270;4.456;2023-07-20T14:36:02;25.20;99.90
9497;DHT22;4786;51.270;4.456;2023-07-20T14:38:31;25.20;99.90
9497;DHT22;4786;51.270;4.456;2023-07-20T14:40:57;25.20;99.90
9497;DHT22;4786;51.270;4.456;2023-07-20T14:43:23;25.20;99.90
9497;DHT22;4786;51.270;4.456;2023-07-20T14:45:49;25.00;99.90
9497;DHT22;4786;51.270;4.456;2023-07-20T14:48:15;24.90;99.90
9497;DHT22;4786;51.270;4.456;2023-07-20T14:50:41;24.80;99.90
9497;DHT22;4786;51.270;4.456;2023-07-20T14:53:07;24.70;99.90
9497;DHT22;4786;51.270;4.456;2023-07-20T14:55:33;24.50;99.90
9497;DHT22;4786;51.270;4.456;2023-07-20T14:57:59;24.40;99.90
9497;DHT22;4786;51.270;4.456;2023-07-20T15:00:25;24.20;99.90
9497;DHT22;4786;51.270;4.456;2023-07-20T15:02:51;24.00;99.90
9497;DHT22;4786;51.270;4.456;2023-07-20T15:05:24;23.80;99.90
9497;DHT22;4786;51.270;4.456;2023-07-20T15:07:52;23.60;99.90
9497;DHT22;4786;51.270;4.456;2023-07-20T15:10:18;23.40;99.90
9497;DHT22;4786;51.270;4.456;2023-07-20T15:12:47;23.30;99.90
9497;DHT22;4786;51.270;4.456;2023-07-20T15:15:14;23.30;99.90
9497;DHT22;4786;51.270;4.456;2023-07-20T15:17:43;23.10;99.90
9497;DHT22;4786;51.270;4.456;2023-07-20T15:20:11;23.10;99.90
9497;DHT22;4786;51.270;4.456;2023-07-20T15:22:38;22.90;99.90
9497;DHT22;4786;51.270;4.456;2023-07-20T15:25:05;22.80;99.90
9497;DHT22;4786;51.270;4.456;2023-07-20T15:27:32;22.80;99.90
9497;DHT22;4786;51.270;4.456;2023-07-20T15:29:58;22.60;99.90
9497;DHT22;4786;51.270;4.456;2023-07-20T15:32:24;22.50;99.90
9497;DHT22;4786;51.270;4.456;2023-07-20T15:34:49;22.40;99.90
9497;DHT22;4786;51.270;4.456;2023-07-20T15:37:15;22.30;99.90
9497;DHT22;4786;51.270;4.456;2023-07-20T15:39:42;22.30;99.90
9497;DHT22;4786;51.270;4.456;2023-07-20T15:42:08;22.10;99.90
9497;DHT22;4786;51.270;4.456;2023-07-20T15:44:34;22.00;99.90
9497;DHT22;4786;51.270;4.456;2023-07-20T15:47:00;22.10;99.90
9497;DHT22;4786;51.270;4.456;2023-07-20T15:49:27;22.00;99.90
9497;DHT22;4786;51.270;4.456;2023-07-20T15:51:53;22.00;99.90
9497;DHT22;4786;51.270;4.456;2023-07-20T15:54:20;21.90;99.90
9497;DHT22;4786;51.270;4.456;2023-07-20T15:56:46;21.70;99.90
9497;DHT22;4786;51.270;4.456;2023-07-20T15:59:14;21.60;99.90
9497;DHT22;4786;51.270;4.456;2023-07-20T16:01:41;21.60;99.90
9497;DHT22;4786;51.270;4.456;2023-07-20T16:04:08;21.60;99.90
9497;DHT22;4786;51.270;4.456;2023-07-20T16:06:34;21.60;99.90
9497;DHT22;4786;51.270;4.456;2023-07-20T16:09:04;21.60;99.90
9497;DHT22;4786;51.270;4.456;2023-07-20T16:11:31;21.60;99.90
9497;DHT22;4786;51.270;4.456;2023-07-20T16:13:57;21.70;99.90
9497;DHT22;4786;51.270;4.456;2023-07-20T16:16:23;21.70;99.90
9497;DHT22;4786;51.270;4.456;2023-07-20T16:18:49;21.70;99.90
9497;DHT22;4786;51.270;4.456;2023-07-20T16:21:16;21.60;99.90